Time;durP1;ratioP1;P1;durP2;ratioP2;P2;SDS_P1;SDS_P2;PMS_P1;PMS_P2;Temp;Humidity;BMP_temperature;BMP_pressure;BME280_temperature;BME280_humidity;BME280_pressure;Samples;Min_cycle;Max_cycle;Signal;HPM_P1;HPM_P2
2022/02/17 00:01:09;;;;;;;0.00;0.00;;;12.40;99.90;12.60;97772.00;;;;4976884;28;104559;-65
2022/02/17 00:03:34;;;;;;;2.60;0.27;;;12.50;99.90;12.60;97766.00;;;;4966085;28;88002;-65
2022/02/17 00:06:01;;;;;;;0.00;0.00;;;12.60;99.90;12.70;97752.00;;;;4975374;28;117383;-66
2022/02/17 00:08:27;;;;;;;0.10;0.10;;;12.70;99.90;12.80;97756.00;;;;4956260;28;107104;-65
2022/02/17 00:10:52;;;;;;;0.07;0.07;;;12.70;99.90;12.90;97742.00;;;;4956982;28;95389;-65
2022/02/17 00:13:18;;;;;;;0.00;0.00;;;12.80;99.90;13.00;97758.00;;;;4967274;28;107763;-65
2022/02/17 00:15:44;;;;;;;0.00;0.00;;;12.90;99.90;13.00;97720.00;;;;4958763;28;89117;-66
2022/02/17 00:18:22;;;;;;;0.00;0.00;;;13.00;99.90;13.10;97687.00;;;;4957366;28;89024;-65
2022/02/17 00:20:55;;;;;;;0.10;0.10;;;13.00;99.90;13.10;97707.00;;;;4957744;28;88047;-65
2022/02/17 00:23:22;;;;;;;0.27;0.07;;;13.10;99.90;13.20;97701.00;;;;4962503;28;87903;-66
2022/02/17 00:25:47;;;;;;;0.00;0.00;;;13.10;99.90;13.20;97697.00;;;;4977215;28;87862;-66
2022/02/17 00:28:13;;;;;;;0.27;0.10;;;13.20;99.90;13.30;97684.00;;;;4976521;28;87874;-65
2022/02/17 00:30:39;;;;;;;0.00;0.00;;;13.20;99.90;13.30;97661.00;;;;4976611;28;99974;-65
2022/02/17 00:33:05;;;;;;;0.37;0.10;;;13.20;99.90;13.30;97659.00;;;;4967795;28;87862;-65
2022/02/17 00:35:31;;;;;;;0.00;0.00;;;13.20;99.90;13.30;97641.00;;;;4957213;28;87907;-66
2022/02/17 00:37:58;;;;;;;0.20;0.00;;;13.30;99.90;13.50;97650.00;;;;4956858;28;87793;-65
2022/02/17 00:40:24;;;;;;;0.00;0.00;;;13.40;99.90;13.50;97652.00;;;;4957350;28;87625;-65
2022/02/17 00:42:49;;;;;;;0.00;0.00;;;13.50;99.90;13.60;97651.00;;;;4956413;28;95140;-65
2022/02/17 00:45:16;;;;;;;0.00;0.00;;;13.50;99.90;13.70;97650.00;;;;4956096;28;117761;-65
2022/02/17 00:47:42;;;;;;;0.00;0.00;;;13.60;99.90;13.70;97643.00;;;;4964267;28;105823;-66
2022/02/17 00:50:08;;;;;;;0.00;0.00;;;13.60;99.90;13.80;97616.00;;;;4976717;28;87953;-65
2022/02/17 00:52:34;;;;;;;0.00;0.00;;;13.70;99.90;13.90;97639.00;;;;4958275;28;87907;-65
2022/02/17 00:54:59;;;;;;;0.00;0.00;;;13.80;99.90;14.00;97642.00;;;;4956202;28;103117;-68
2022/02/17 00:57:25;;;;;;;0.00;0.00;;;13.90;99.90;14.10;97606.00;;;;4955999;28;117899;-68
2022/02/17 00:59:51;;;;;;;0.00;0.00;;;13.90;99.90;14.10;97649.00;;;;4956451;28;96685;-68
2022/02/17 01:02:17;;;;;;;0.00;0.00;;;14.00;99.90;14.10;97592.00;;;;4956883;28;87713;-67
2022/02/17 01:04:42;;;;;;;0.00;0.00;;;14.10;99.90;14.20;97594.00;;;;4970496;28;87832;-68
2022/02/17 01:07:08;;;;;;;0.10;0.10;;;14.10;99.90;14.20;97597.00;;;;4964629;28;117999;-67
2022/02/17 01:09:35;;;;;;;0.00;0.00;;;14.10;99.90;14.20;97600.00;;;;4975106;28;92433;-68
2022/02/17 01:12:01;;;;;;;0.00;0.00;;;14.10;99.90;14.20;97579.00;;;;4975452;28;108966;-67
2022/02/17 01:14:27;;;;;;;0.00;0.00;;;14.10;99.90;14.20;97569.00;;;;4955247;28;108014;-66
2022/02/17 01:16:52;;;;;;;0.00;0.00;;;14.10;99.90;14.20;97553.00;;;;4955837;28;102471;-66
2022/02/17 01:19:18;;;;;;;0.00;0.00;;;14.10;99.90;14.10;97528.00;;;;4974483;28;88062;-67
2022/02/17 01:21:44;;;;;;;0.13;0.03;;;14.10;99.90;14.20;97547.00;;;;4975215;28;109150;-66
2022/02/17 01:24:10;;;;;;;0.00;0.00;;;14.20;99.90;14.30;97556.00;;;;4975926;28;87349;-65
2022/02/17 01:26:36;;;;;;;0.00;0.00;;;14.20;99.90;14.30;97540.00;;;;4976063;28;97405;-67
2022/02/17 01:29:02;;;;;;;0.07;0.07;;;14.30;99.90;14.30;97563.00;;;;4976114;28;87565;-67
2022/02/17 01:31:27;;;;;;;0.00;0.00;;;14.30;99.90;14.20;97544.00;;;;4975574;28;88519;-66
2022/02/17 01:33:53;;;;;;;0.00;0.00;;;14.30;99.90;14.20;97516.00;;;;4975324;28;87738;-65
2022/02/17 01:36:19;;;;;;;0.00;0.00;;;14.20;99.90;14.30;97501.00;;;;4976044;28;87608;-65
2022/02/17 01:38:45;;;;;;;0.00;0.00;;;14.20;99.90;14.40;97537.00;;;;4974814;28;109038;-68
2022/02/17 01:41:11;;;;;;;0.00;0.00;;;14.30;99.90;14.40;97524.00;;;;4975330;28;87680;-67
2022/02/17 01:43:37;;;;;;;0.00;0.00;;;14.30;99.90;14.40;97520.00;;;;4961576;28;87885;-67
2022/02/17 01:46:04;;;;;;;0.00;0.00;;;14.30;99.90;14.50;97528.00;;;;4965296;28;116176;-68
2022/02/17 01:48:31;;;;;;;0.00;0.00;;;14.40;99.90;14.40;97504.00;;;;4973546;28;87163;-67
2022/02/17 01:50:57;;;;;;;0.00;0.00;;;14.40;99.90;14.50;97516.00;;;;4975323;28;87722;-66
2022/02/17 01:53:24;;;;;;;0.00;0.00;;;14.40;99.90;14.50;97525.00;;;;4974809;28;88400;-68
2022/02/17 01:55:54;;;;;;;0.00;0.00;;;14.50;99.90;14.50;97510.00;;;;4975143;28;88719;-68
2022/02/17 01:58:21;;;;;;;0.00;0.00;;;14.50;99.90;14.50;97498.00;;;;4974170;28;87725;-68
2022/02/17 02:00:47;;;;;;;0.00;0.00;;;14.50;99.90;14.50;97484.00;;;;4973611;28;87698;-68
2022/02/17 02:03:14;;;;;;;0.00;0.00;;;14.50;99.90;14.50;97515.00;;;;4973658;28;88449;-69
2022/02/17 02:05:40;;;;;;;0.00;0.00;;;14.40;99.90;14.40;97477.00;;;;4969345;28;90500;-70
2022/02/17 02:08:09;;;;;;;0.00;0.00;;;14.40;99.90;14.50;97518.00;;;;4970538;28;88120;-69
2022/02/17 02:10:35;;;;;;;0.00;0.00;;;14.50;99.90;14.50;97505.00;;;;4970509;28;87873;-66
2022/02/17 02:13:01;;;;;;;0.00;0.00;;;14.40;99.90;14.40;97495.00;;;;4959802;28;117816;-68
2022/02/17 02:15:40;;;;;;;0.00;0.00;;;14.40;99.90;14.20;97524.00;;;;4975128;28;87840;-68
2022/02/17 02:18:06;;;;;;;0.00;0.00;;;14.30;99.90;14.30;97523.00;;;;4972321;28;98659;-68
2022/02/17 02:20:32;;;;;;;0.00;0.00;;;14.30;99.90;14.30;97514.00;;;;4973907;28;108096;-67
2022/02/17 02:22:58;;;;;;;0.00;0.00;;;14.20;99.90;14.30;97535.00;;;;4975014;28;88129;-68
2022/02/17 02:25:29;;;;;;;0.00;0.00;;;14.30;99.90;14.30;97547.00;;;;4974244;28;115233;-67
2022/02/17 02:27:55;;;;;;;0.00;0.00;;;14.30;99.90;14.30;97532.00;;;;4988963;28;111474;-66
2022/02/17 02:30:21;;;;;;;0.30;0.10;;;14.30;99.90;14.50;97537.00;;;;4974735;28;87874;-68
2022/02/17 02:32:47;;;;;;;0.00;0.00;;;15.00;99.90;14.40;97518.00;;;;4972839;28;116119;-69
2022/02/17 02:35:12;;;;;;;0.10;0.10;;;14.40;99.90;14.50;97536.00;;;;4974835;28;102663;-69
2022/02/17 02:37:38;;;;;;;0.00;0.00;;;14.40;99.90;14.50;97549.00;;;;4974227;28;110994;-68
2022/02/17 02:40:04;;;;;;;0.00;0.00;;;14.40;99.90;14.20;97676.00;;;;4972589;28;108592;-69
2022/02/17 02:42:30;;;;;;;1.47;0.20;;;14.30;99.90;13.30;97724.00;;;;4974013;28;92910;-67
2022/02/17 02:44:56;;;;;;;1.10;0.30;;;13.60;99.90;12.30;97701.00;;;;4973799;28;99715;-69
2022/02/17 02:47:21;;;;;;;0.40;0.37;;;12.80;99.90;11.50;97689.00;;;;4980315;28;109074;-67
2022/02/17 02:49:47;;;;;;;0.63;0.30;;;12.00;99.90;11.10;97692.00;;;;4972499;28;87864;-65
2022/02/17 02:52:16;;;;;;;0.43;0.43;;;11.40;99.90;10.70;97690.00;;;;4973519;28;116706;-67
2022/02/17 02:54:41;;;;;;;3.70;0.37;;;11.00;99.90;10.50;97703.00;;;;4973709;28;116806;-67
2022/02/17 02:57:07;;;;;;;1.73;0.20;;;10.80;99.90;10.40;97700.00;;;;4973781;28;110315;-66
2022/02/17 02:59:34;;;;;;;1.90;0.40;;;10.60;99.90;10.30;97662.00;;;;4974452;28;88012;-68
2022/02/17 03:02:00;;;;;;;0.60;0.30;;;10.40;99.90;10.30;97698.00;;;;4974371;28;88199;-68
2022/02/17 03:04:26;;;;;;;0.20;0.20;;;10.40;99.90;10.20;97727.00;;;;4974687;28;88007;-68
2022/02/17 03:06:51;;;;;;;1.53;0.60;;;10.40;99.90;10.20;97685.00;;;;4964765;28;92491;-69
2022/02/17 03:09:17;;;;;;;1.60;0.20;;;10.30;99.90;10.10;97654.00;;;;4965461;28;107475;-68
2022/02/17 03:11:43;;;;;;;1.13;0.70;;;10.20;99.90;10.00;97644.00;;;;4973723;28;116778;-67
2022/02/17 03:14:09;;;;;;;1.23;0.40;;;10.10;99.90;9.80;97613.00;;;;4970380;28;119163;-68
2022/02/17 03:16:35;;;;;;;2.47;0.40;;;10.00;99.90;9.70;97611.00;;;;4974268;28;87619;-67
2022/02/17 03:19:01;;;;;;;1.03;0.40;;;9.90;99.90;9.70;97618.00;;;;4960338;28;95737;-66
2022/02/17 03:21:26;;;;;;;0.30;0.30;;;9.80;99.90;9.60;97606.00;;;;4977105;28;117938;-67
2022/02/17 03:23:53;;;;;;;2.43;0.80;;;9.70;99.90;9.60;97585.00;;;;4976385;28;117273;-66
2022/02/17 03:26:18;;;;;;;1.83;0.60;;;9.70;99.90;9.60;97592.00;;;;4978353;28;86983;-66
2022/02/17 03:28:44;;;;;;;0.40;0.40;;;9.60;99.90;9.60;97607.00;;;;4976926;28;99068;-65
2022/02/17 03:31:10;;;;;;;1.27;0.60;;;9.60;99.90;9.60;97606.00;;;;4977732;28;88857;-67
2022/02/17 03:33:36;;;;;;;0.87;0.37;;;9.60;99.90;9.60;97627.00;;;;4976789;28;88526;-66
2022/02/17 03:36:02;;;;;;;0.23;0.23;;;9.60;99.90;9.60;97639.00;;;;4976774;28;110482;-66
2022/02/17 03:38:28;;;;;;;0.43;0.30;;;9.60;99.90;9.60;97650.00;;;;4971911;28;87967;-66
2022/02/17 03:40:53;;;;;;;7.20;0.73;;;9.60;99.90;9.60;97662.00;;;;4957184;28;102069;-67
2022/02/17 03:43:19;;;;;;;0.50;0.50;;;9.60;99.90;9.60;97674.00;;;;4957097;28;117752;-66
2022/02/17 03:45:45;;;;;;;0.20;0.20;;;9.60;99.90;9.60;97679.00;;;;4956971;28;111312;-67
2022/02/17 03:48:10;;;;;;;0.23;0.23;;;10.00;99.90;9.50;97672.00;;;;4956963;28;107804;-68
2022/02/17 03:50:36;;;;;;;0.90;0.37;;;9.60;99.90;9.40;97674.00;;;;4956919;28;116184;-71
2022/02/17 03:53:02;;;;;;;3.07;0.43;;;9.50;99.90;9.40;97703.00;;;;4956306;28;116755;-69
2022/02/17 03:55:27;;;;;;;0.43;0.30;;;9.40;99.90;9.20;97674.00;;;;4956914;28;110512;-69
2022/02/17 03:57:53;;;;;;;0.30;0.30;;;9.30;99.90;9.00;97666.00;;;;4956366;28;91340;-69
2022/02/17 04:00:19;;;;;;;1.70;0.50;;;9.20;99.90;8.80;97692.00;;;;4957486;28;87939;-70
2022/02/17 04:02:45;;;;;;;2.30;0.30;;;9.00;99.90;8.60;97675.00;;;;4956667;28;117752;-68
2022/02/17 04:05:11;;;;;;;1.33;0.47;;;8.80;99.90;8.50;97671.00;;;;4957747;28;87759;-68
2022/02/17 04:07:39;;;;;;;0.20;0.20;;;8.70;99.90;8.40;97679.00;;;;4972987;28;108548;-68
2022/02/17 04:10:05;;;;;;;0.33;0.20;;;8.60;99.90;8.30;97670.00;;;;4975358;28;90852;-68
2022/02/17 04:12:31;;;;;;;1.50;0.40;;;8.50;99.90;8.30;97668.00;;;;4976386;28;103428;-70
2022/02/17 04:14:56;;;;;;;3.50;0.50;;;8.30;99.90;8.20;97645.00;;;;4972205;28;87467;-70
2022/02/17 04:17:22;;;;;;;0.33;0.30;;;8.30;99.90;8.20;97630.00;;;;4974033;28;107307;-69
2022/02/17 04:19:48;;;;;;;0.60;0.27;;;8.30;99.90;8.10;97624.00;;;;4975383;28;117373;-69
2022/02/17 04:22:13;;;;;;;0.83;0.57;;;8.20;99.90;8.10;97634.00;;;;4976215;28;88774;-67
2022/02/17 04:24:41;;;;;;;0.40;0.37;;;8.20;99.90;8.00;97619.00;;;;4977073;28;87766;-69
2022/02/17 04:27:07;;;;;;;2.47;0.43;;;8.10;99.90;8.00;97643.00;;;;4975774;28;87809;-66
2022/02/17 04:29:34;;;;;;;0.30;0.30;;;8.10;99.90;8.00;97667.00;;;;4956352;28;89927;-69
2022/02/17 04:32:00;;;;;;;5.10;0.73;;;8.10;99.90;8.10;97660.00;;;;4956734;28;87919;-69
2022/02/17 04:34:26;;;;;;;0.17;0.17;;;8.20;99.90;8.10;97667.00;;;;4964881;28;110260;-69
2022/02/17 04:36:51;;;;;;;2.53;0.50;;;8.20;99.90;8.20;97682.00;;;;4976818;28;87976;-69
2022/02/17 04:39:17;;;;;;;2.17;0.53;;;8.30;99.90;8.30;97713.00;;;;4976367;28;99209;-69
2022/02/17 04:44:27;;;;;;;0.83;0.27;;;8.30;99.90;8.40;97745.00;;;;4975852;28;87635;-71
2022/02/17 04:46:52;;;;;;;3.93;0.30;;;8.40;99.90;8.50;97696.00;;;;4975298;28;109778;-70
2022/02/17 04:49:18;;;;;;;0.30;0.20;;;8.50;99.90;8.50;97673.00;;;;4973021;28;112777;-74
2022/02/17 04:51:44;;;;;;;2.80;0.23;;;8.60;99.90;8.50;97679.00;;;;4975865;28;95306;-73
2022/02/17 04:54:10;;;;;;;1.23;0.40;;;8.60;99.90;8.50;97731.00;;;;4957078;28;110661;-74
2022/02/17 04:56:35;;;;;;;1.00;0.50;;;8.60;99.90;8.50;97733.00;;;;4971014;28;87856;-71
2022/02/17 04:59:01;;;;;;;0.40;0.40;;;8.60;99.90;8.40;97714.00;;;;4972012;28;98597;-72
2022/02/17 05:01:27;;;;;;;1.30;0.60;;;8.50;99.90;8.40;97744.00;;;;4955263;28;117024;-71
2022/02/17 05:03:52;;;;;;;0.77;0.47;;;8.50;99.90;8.40;97722.00;;;;4955999;28;110356;-70
2022/02/17 05:06:18;;;;;;;0.27;0.27;;;8.50;99.90;8.40;97720.00;;;;4957195;28;87667;-71
2022/02/17 05:08:44;;;;;;;0.53;0.33;;;8.40;99.90;8.40;97701.00;;;;4955394;28;104835;-70
2022/02/17 05:11:10;;;;;;;2.03;0.30;;;8.40;99.90;8.40;97696.00;;;;4969751;28;101791;-72
2022/02/17 05:13:35;;;;;;;0.27;0.23;;;8.50;99.90;8.30;97689.00;;;;4968379;28;109207;-70
2022/02/17 05:16:01;;;;;;;1.10;0.27;;;8.40;99.90;8.40;97708.00;;;;4975430;28;108912;-69
2022/02/17 05:18:27;;;;;;;1.13;0.43;;;8.40;99.90;8.40;97731.00;;;;4973318;28;110153;-69
2022/02/17 05:20:52;;;;;;;0.50;0.50;;;8.60;99.90;8.50;97738.00;;;;4974651;28;118718;-67
2022/02/17 05:23:18;;;;;;;1.00;0.30;;;8.50;99.90;8.60;97750.00;;;;4964258;28;110569;-69
2022/02/17 05:25:47;;;;;;;0.73;0.30;;;8.60;99.90;8.70;97744.00;;;;4955566;28;108736;-68
2022/02/17 05:28:15;;;;;;;6.00;0.73;;;8.70;99.90;8.70;97758.00;;;;4956509;28;87637;-68
2022/02/17 05:30:45;;;;;;;1.87;0.53;;;8.70;99.90;8.80;97777.00;;;;4971786;28;87956;-69
2022/02/17 05:33:13;;;;;;;0.30;0.20;;;8.80;99.90;8.80;97781.00;;;;4966300;28;87758;-68
2022/02/17 05:35:40;;;;;;;1.87;0.40;;;8.80;99.90;8.80;97802.00;;;;4955968;28;92623;-68
2022/02/17 05:38:07;;;;;;;0.63;0.40;;;8.80;99.90;8.70;97846.00;;;;4952434;28;117263;-67
2022/02/17 05:40:34;;;;;;;0.10;0.10;;;8.80;99.90;8.70;97821.00;;;;4954783;28;104414;-68
2022/02/17 05:43:01;;;;;;;0.43;0.37;;;8.70;99.90;8.70;97835.00;;;;4956070;28;87685;-68
2022/02/17 05:45:27;;;;;;;1.67;0.40;;;8.70;99.90;8.70;97830.00;;;;4956806;28;87480;-68
2022/02/17 05:47:53;;;;;;;0.37;0.23;;;8.70;99.90;8.70;97815.00;;;;4955812;28;88053;-67
2022/02/17 05:50:20;;;;;;;3.40;0.70;;;8.70;99.90;8.70;97835.00;;;;4955810;28;88262;-67
2022/02/17 05:52:48;;;;;;;0.97;0.40;;;8.80;99.90;8.70;97855.00;;;;4970150;28;95717;-67
2022/02/17 05:55:14;;;;;;;0.30;0.30;;;8.70;99.90;8.60;97869.00;;;;4956207;28;88019;-67
2022/02/17 05:57:41;;;;;;;0.53;0.50;;;8.70;99.90;8.60;97864.00;;;;4963885;28;105596;-67
2022/02/17 06:00:08;;;;;;;0.80;0.50;;;8.70;99.90;8.60;97863.00;;;;4974970;28;89194;-67
2022/02/17 06:02:34;;;;;;;1.07;0.60;;;8.70;99.90;8.60;97871.00;;;;4975657;28;87865;-67
2022/02/17 06:05:00;;;;;;;0.73;0.30;;;8.70;99.90;8.60;97893.00;;;;4974944;28;107118;-68
2022/02/17 06:07:25;;;;;;;1.17;0.60;;;8.70;99.90;8.60;97888.00;;;;4973205;28;117835;-67
2022/02/17 06:09:51;;;;;;;0.77;0.37;;;8.70;99.90;8.50;97875.00;;;;4974443;28;116990;-68
2022/02/17 06:12:17;;;;;;;0.70;0.40;;;8.60;99.90;8.50;97912.00;;;;4974586;28;110080;-66
2022/02/17 06:14:43;;;;;;;0.30;0.20;;;8.60;99.90;8.40;97913.00;;;;4975046;28;87718;-67
2022/02/17 06:17:08;;;;;;;2.63;0.50;;;8.50;99.90;8.40;97932.00;;;;4973408;28;93795;-68
2022/02/17 06:19:34;;;;;;;0.40;0.40;;;8.50;99.90;8.30;97934.00;;;;4973961;28;116403;-67
2022/02/17 06:22:00;;;;;;;0.63;0.37;;;8.40;99.90;8.30;97940.00;;;;4974829;28;95080;-67
2022/02/17 06:27:29;;;;;;;0.30;0.30;;;8.40;99.90;8.30;97938.00;;;;4953761;28;117504;-66
2022/02/17 06:29:55;;;;;;;0.20;0.20;;;8.40;99.90;8.30;97925.00;;;;4989213;28;88463;-66
2022/02/17 06:32:20;;;;;;;3.33;0.47;;;8.40;99.90;8.30;97932.00;;;;4973034;28;110582;-67
2022/02/17 06:34:46;;;;;;;0.67;0.30;;;8.40;99.90;8.30;97945.00;;;;4974306;28;108862;-67
2022/02/17 06:37:12;;;;;;;0.30;0.30;;;8.30;99.90;8.30;97936.00;;;;4974003;28;117733;-66
2022/02/17 06:39:37;;;;;;;0.60;0.30;;;8.40;99.90;8.30;97968.00;;;;4973980;28;113992;-66
2022/02/17 06:42:03;;;;;;;5.40;0.70;;;8.90;99.90;8.30;97955.00;;;;4974390;28;109665;-67
2022/02/17 06:44:29;;;;;;;3.40;0.60;;;8.40;99.90;8.40;97963.00;;;;4974512;28;99836;-66
2022/02/17 06:46:55;;;;;;;0.40;0.30;;;8.40;99.90;8.40;97957.00;;;;4973998;28;117497;-67
2022/02/17 06:49:21;;;;;;;1.77;0.90;;;8.40;99.90;8.40;97960.00;;;;4974004;28;88853;-66
2022/02/17 06:51:47;;;;;;;0.43;0.30;;;8.40;99.90;8.40;97972.00;;;;4974850;28;110857;-67
2022/02/17 06:54:12;;;;;;;1.27;0.37;;;8.50;99.90;8.50;97984.00;;;;4978049;28;88066;-66
2022/02/17 06:56:38;;;;;;;1.80;0.30;;;8.20;99.90;8.60;97986.00;;;;4977664;28;117006;-67
2022/02/17 06:59:04;;;;;;;5.23;0.77;;;8.60;99.90;8.70;97988.00;;;;4959808;28;117634;-66
2022/02/17 07:01:30;;;;;;;1.40;0.50;;;8.70;99.90;8.70;97986.00;;;;4972631;28;100191;-67
2022/02/17 07:03:55;;;;;;;0.57;0.40;;;8.70;99.90;8.80;97999.00;;;;4992226;28;108576;-66
2022/02/17 07:06:23;;;;;;;2.83;0.50;;;8.90;99.90;8.90;97994.00;;;;4971304;28;87492;-66
2022/02/17 07:08:50;;;;;;;1.77;0.80;;;8.90;99.90;8.90;98008.00;;;;4957409;28;87594;-67
2022/02/17 07:11:15;;;;;;;3.10;0.57;;;9.00;99.90;9.00;97987.00;;;;4958893;28;87576;-65
2022/02/17 07:13:41;;;;;;;2.03;0.63;;;9.00;99.90;9.00;98021.00;;;;4970261;28;108334;-66
2022/02/17 07:16:07;;;;;;;0.60;0.43;;;9.00;99.90;9.10;98021.00;;;;4977915;28;87455;-65
2022/02/17 07:18:32;;;;;;;3.93;0.63;;;9.00;99.90;9.10;98009.00;;;;4975763;28;116702;-65
2022/02/17 07:20:58;;;;;;;0.70;0.37;;;9.10;99.90;9.10;98015.00;;;;4978659;28;87671;-66
2022/02/17 07:23:26;;;;;;;2.50;0.60;;;9.10;99.90;9.20;98016.00;;;;4976515;28;89164;-66
2022/02/17 07:25:53;;;;;;;0.60;0.40;;;9.20;99.90;9.20;98014.00;;;;4978299;28;88233;-66
2022/02/17 07:28:25;;;;;;;0.83;0.57;;;9.20;99.90;9.20;98012.00;;;;4976911;28;88895;-67
2022/02/17 07:30:50;;;;;;;1.27;1.03;;;9.20;99.90;9.30;98017.00;;;;4978458;28;86892;-67
2022/02/17 07:33:17;;;;;;;0.63;0.50;;;9.30;98.60;9.30;98037.00;;;;4977282;28;87560;-66
2022/02/17 07:35:43;;;;;;;7.10;0.80;;;9.30;98.90;9.30;98011.00;;;;4974729;28;88650;-67
2022/02/17 07:38:09;;;;;;;1.07;0.47;;;9.30;98.40;9.30;98037.00;;;;4957603;28;88828;-66
2022/02/17 07:40:35;;;;;;;0.73;0.20;;;9.30;98.80;9.30;98037.00;;;;4957684;28;87658;-67
2022/02/17 07:43:01;;;;;;;0.30;0.30;;;9.30;97.50;9.40;98038.00;;;;4959289;28;88036;-67
2022/02/17 07:45:27;;;;;;;1.17;0.40;;;9.40;97.30;9.40;98021.00;;;;4963438;28;87917;-67
2022/02/17 07:47:54;;;;;;;0.97;0.50;;;9.40;96.60;9.40;98024.00;;;;4976897;28;88694;-67
2022/02/17 07:50:25;;;;;;;1.47;0.93;;;9.40;96.80;9.40;98040.00;;;;4978160;28;87995;-67
2022/02/17 07:52:51;;;;;;;0.20;0.20;;;9.40;96.60;9.30;98024.00;;;;4975309;28;88141;-67
2022/02/17 07:55:18;;;;;;;1.40;0.50;;;9.40;96.40;9.30;98054.00;;;;4978037;28;87300;-66
2022/02/17 07:57:43;;;;;;;2.97;0.43;;;9.40;96.60;9.30;98068.00;;;;4976047;28;88006;-67
2022/02/17 08:00:13;;;;;;;1.70;0.60;;;9.30;97.70;9.30;98047.00;;;;4977182;28;87704;-68
2022/02/17 08:02:41;;;;;;;1.43;0.20;;;9.30;96.40;9.30;98049.00;;;;4989460;27;88892;-67
2022/02/17 08:05:09;;;;;;;0.63;0.50;;;9.30;95.50;9.30;98068.00;;;;4965230;28;108839;-68
2022/02/17 08:07:37;;;;;;;1.30;0.50;;;9.30;95.30;9.30;98060.00;;;;4957788;28;88036;-66
2022/02/17 08:10:05;;;;;;;0.57;0.40;;;9.30;94.00;9.40;98077.00;;;;4957499;28;87947;-65
2022/02/17 08:12:30;;;;;;;0.73;0.40;;;9.40;95.30;9.70;98054.00;;;;4960524;28;97082;-66
2022/02/17 08:14:58;;;;;;;0.83;0.37;;;9.60;93.90;10.10;98085.00;;;;4963878;28;116659;-66
2022/02/17 08:17:24;;;;;;;2.20;0.70;;;9.90;91.50;10.30;98064.00;;;;4973483;28;88589;-68
2022/02/17 08:19:50;;;;;;;1.47;0.63;;;10.20;91.40;10.60;98050.00;;;;4957362;28;87289;-67
2022/02/17 08:22:16;;;;;;;2.80;0.40;;;10.40;88.00;10.70;98059.00;;;;4957554;28;108959;-68
2022/02/17 08:24:41;;;;;;;3.50;0.30;;;10.60;84.40;10.80;98079.00;;;;4956388;28;111059;-67
2022/02/17 08:27:07;;;;;;;4.47;0.60;;;10.80;82.70;11.00;98081.00;;;;4964084;28;116398;-67
2022/02/17 08:29:34;;;;;;;0.90;0.40;;;10.80;78.90;11.00;98081.00;;;;4975457;28;110192;-66
2022/02/17 08:31:59;;;;;;;0.93;0.70;;;11.00;79.40;11.10;98104.00;;;;4976769;28;87798;-66
2022/02/17 08:34:25;;;;;;;0.70;0.40;;;11.10;78.70;11.30;98089.00;;;;4956246;28;116823;-66
2022/02/17 08:36:53;;;;;;;0.60;0.40;;;11.20;74.60;11.40;98081.00;;;;4956019;28;109115;-66
2022/02/17 08:39:19;;;;;;;3.10;0.60;;;11.40;72.90;11.60;98066.00;;;;4956465;28;87668;-67
2022/02/17 08:41:45;;;;;;;2.00;0.70;;;11.60;69.40;11.70;98083.00;;;;4970140;28;108918;-66
2022/02/17 08:44:11;;;;;;;0.40;0.40;;;11.60;67.20;11.80;98100.00;;;;4989874;28;87003;-68
2022/02/17 08:46:37;;;;;;;0.50;0.50;;;11.70;67.60;11.90;98108.00;;;;4975695;28;117195;-67
2022/02/17 08:49:03;;;;;;;0.87;0.20;;;11.80;67.40;11.90;98122.00;;;;4975853;28;87772;-68
2022/02/17 08:51:30;;;;;;;0.37;0.37;;;11.90;67.20;12.00;98134.00;;;;4976375;28;88714;-67
2022/02/17 08:53:58;;;;;;;0.10;0.10;;;11.90;66.60;11.90;98126.00;;;;4974238;28;88629;-68
2022/02/17 08:56:24;;;;;;;1.97;0.50;;;11.90;67.00;12.00;98133.00;;;;4976448;28;109067;-67
2022/02/17 08:58:51;;;;;;;1.20;0.37;;;12.00;66.30;12.00;98127.00;;;;4961116;28;88054;-66
2022/02/17 09:01:17;;;;;;;0.50;0.43;;;12.00;66.70;12.00;98135.00;;;;4956428;28;87589;-66
2022/02/17 09:03:43;;;;;;;4.93;0.70;;;12.00;67.30;12.10;98144.00;;;;4956082;28;89172;-67
2022/02/17 09:06:09;;;;;;;1.80;0.27;;;12.10;67.20;12.10;98154.00;;;;4956351;28;88571;-66
2022/02/17 09:08:35;;;;;;;0.53;0.37;;;12.10;68.40;12.20;98151.00;;;;4963230;28;87181;-65
2022/02/17 09:11:01;;;;;;;0.53;0.30;;;12.20;66.80;12.20;98154.00;;;;4975426;28;102493;-66
2022/02/17 09:13:27;;;;;;;1.07;0.67;;;12.20;65.80;12.10;98147.00;;;;4963537;28;91281;-66
2022/02/17 09:15:53;;;;;;;0.43;0.43;;;12.20;65.30;12.10;98173.00;;;;4955376;28;89058;-65
2022/02/17 09:18:19;;;;;;;1.93;0.50;;;12.10;67.10;12.10;98171.00;;;;4954943;28;105295;-66
2022/02/17 09:20:45;;;;;;;0.90;0.47;;;12.20;66.30;12.10;98154.00;;;;4955892;28;108078;-66
2022/02/17 09:23:10;;;;;;;1.63;0.63;;;12.10;66.90;12.00;98185.00;;;;4955387;28;117680;-66
2022/02/17 09:25:36;;;;;;;1.73;0.60;;;12.10;66.70;12.00;98159.00;;;;4956861;28;87787;-67
2022/02/17 09:28:04;;;;;;;2.40;0.70;;;12.00;66.80;12.00;98186.00;;;;4956968;28;87722;-65
2022/02/17 09:30:30;;;;;;;0.40;0.30;;;12.00;67.30;12.00;98201.00;;;;4956467;28;87803;-66
2022/02/17 09:32:56;;;;;;;0.50;0.30;;;12.00;66.30;11.90;98204.00;;;;4956639;28;87551;-66
2022/02/17 09:35:21;;;;;;;1.77;0.50;;;12.00;66.60;11.70;98211.00;;;;4955687;28;105025;-66
2022/02/17 09:37:47;;;;;;;1.77;0.73;;;11.80;67.10;11.70;98198.00;;;;4973221;28;110713;-66
2022/02/17 09:40:13;;;;;;;0.40;0.40;;;11.70;67.00;11.60;98227.00;;;;4973381;28;108219;-66
2022/02/17 09:42:39;;;;;;;1.37;0.60;;;11.60;67.00;11.40;98214.00;;;;4969325;28;88330;-66
2022/02/17 09:45:10;;;;;;;2.77;0.60;;;11.50;66.40;11.30;98233.00;;;;4970418;28;103369;-66
2022/02/17 09:47:44;;;;;;;1.90;0.40;;;11.40;66.50;11.30;98235.00;;;;4956444;28;87945;-66
2022/02/17 09:50:13;;;;;;;0.40;0.33;;;11.40;66.10;11.40;98241.00;;;;4956625;28;87744;-67
2022/02/17 09:52:40;;;;;;;2.77;0.63;;;11.50;67.00;11.40;98246.00;;;;4961081;28;88038;-67
2022/02/17 09:55:14;;;;;;;2.40;0.73;;;11.40;66.20;11.20;98257.00;;;;4989397;28;88527;-66
2022/02/17 09:57:43;;;;;;;2.43;0.57;;;11.30;66.70;11.10;98263.00;;;;4973720;28;87007;-66
2022/02/17 10:00:13;;;;;;;2.47;0.53;;;11.20;68.20;11.10;98237.00;;;;4974986;28;87693;-66
2022/02/17 10:02:39;;;;;;;0.80;0.53;;;11.10;68.90;11.20;98282.00;;;;4974452;28;89412;-67
2022/02/17 10:05:07;;;;;;;2.70;0.83;;;11.20;68.90;11.30;98207.00;;;;4959495;28;94818;-67
2022/02/17 10:07:36;;;;;;;1.73;0.50;;;11.20;69.20;11.20;98245.00;;;;4955585;28;99014;-66
2022/02/17 10:10:09;;;;;;;2.97;0.80;;;11.20;67.80;11.20;98269.00;;;;4955340;28;87738;-66
2022/02/17 10:12:56;;;;;;;1.10;0.50;;;11.20;68.50;11.10;98267.00;;;;4955444;28;89355;-67
2022/02/17 10:15:39;;;;;;;4.03;0.53;;;11.10;69.60;11.00;98295.00;;;;4955534;28;87859;-66
2022/02/17 10:18:14;;;;;;;2.07;0.83;;;11.10;69.00;10.90;98321.00;;;;4954005;28;110010;-67
2022/02/17 10:21:08;;;;;;;0.87;0.37;;;11.00;70.00;10.80;98317.00;;;;4955443;28;87938;-66
2022/02/17 10:23:42;;;;;;;1.83;0.80;;;10.90;70.80;10.80;98333.00;;;;4953301;28;87905;-67
2022/02/17 10:26:15;;;;;;;1.10;0.67;;;10.80;70.90;10.90;98338.00;;;;4956361;28;87625;-67
2022/02/17 10:28:52;;;;;;;1.70;0.73;;;10.90;70.40;11.00;98352.00;;;;4973308;28;87880;-66
2022/02/17 10:31:28;;;;;;;4.10;1.17;;;11.00;70.70;11.00;98349.00;;;;4976849;28;88828;-66
2022/02/17 10:33:56;;;;;;;2.33;0.47;;;11.00;69.60;11.00;98340.00;;;;4978623;28;87912;-67
2022/02/17 10:36:34;;;;;;;0.93;0.63;;;11.00;70.10;11.00;98348.00;;;;4978404;28;110981;-66
2022/02/17 10:39:19;;;;;;;3.93;0.70;;;11.00;70.40;11.00;98359.00;;;;4976280;28;87766;-65
2022/02/17 10:41:59;;;;;;;0.93;0.70;;;11.00;69.90;11.00;98369.00;;;;4978683;28;87927;-66
2022/02/17 10:44:41;;;;;;;2.40;0.60;;;11.00;69.80;10.90;98373.00;;;;4978688;28;88081;-66
2022/02/17 10:47:19;;;;;;;8.83;1.03;;;11.00;69.60;10.80;98395.00;;;;4992561;28;89364;-65
2022/02/17 10:49:52;;;;;;;1.80;0.87;;;10.90;69.40;10.80;98393.00;;;;4966394;28;87037;-66
2022/02/17 10:52:34;;;;;;;1.13;0.63;;;10.80;70.00;10.80;98394.00;;;;4978168;28;93919;-66
2022/02/17 10:55:20;;;;;;;1.83;1.03;;;10.80;70.50;10.80;98375.00;;;;4976781;28;88038;-66
2022/02/17 10:57:51;;;;;;;6.60;1.00;;;10.80;71.40;10.90;98403.00;;;;4970602;28;88863;-66
2022/02/17 11:00:22;;;;;;;6.87;1.10;;;11.30;71.10;10.90;98411.00;;;;4971993;28;87805;-66
2022/02/17 11:02:50;;;;;;;1.73;0.63;;;10.90;70.70;11.00;98432.00;;;;4977626;28;87742;-66